Time;durP1;ratioP1;P1;durP2;ratioP2;P2;SDS_P1;SDS_P2;PMS_P1;PMS_P2;Temp;Humidity;BMP_temperature;BMP_pressure;BME280_temperature;BME280_humidity;BME280_pressure;Samples;Min_cycle;Max_cycle;Signal;HPM_P1;HPM_P2
2021/12/14 00:01:36;;;;;;;0.00;0.00;;;6.10;72.10;;;;;;5058310;28;20079;-82
2021/12/14 00:04:09;;;;;;;0.00;0.00;;;6.10;72.20;;;;;;5056721;28;20032;-80
2021/12/14 00:06:36;;;;;;;0.00;0.00;;;6.10;72.10;;;;;;5056417;28;20435;-82
2021/12/14 00:09:05;;;;;;;0.00;0.00;;;6.10;72.00;;;;;;5055212;28;20389;-81
2021/12/14 00:16:54;;;;;;;0.00;0.00;;;6.20;72.40;;;;;;5056500;28;20028;-82
2021/12/14 00:19:20;;;;;;;0.00;0.00;;;6.20;72.20;;;;;;5056317;28;20075;-81
2021/12/14 00:21:51;;;;;;;0.00;0.00;;;6.20;72.20;;;;;;5056408;28;20495;-82
2021/12/14 00:24:20;;;;;;;0.00;0.00;;;6.20;72.20;;;;;;5056641;28;20104;-81
2021/12/14 00:26:54;;;;;;;0.00;0.00;;;6.20;72.20;;;;;;5055249;28;20041;-83
2021/12/14 00:29:31;;;;;;;0.00;0.00;;;6.20;72.20;;;;;;5054938;28;20083;-80
2021/12/14 00:32:00;;;;;;;0.00;0.00;;;6.20;72.40;;;;;;5055419;28;20052;-82
2021/12/14 00:34:37;;;;;;;0.00;0.00;;;6.20;72.20;;;;;;5057171;28;20021;-82
2021/12/14 00:37:05;;;;;;;0.00;0.00;;;6.20;71.80;;;;;;5056541;28;20530;-82
2021/12/14 00:39:31;;;;;;;0.00;0.00;;;6.20;71.90;;;;;;5056767;28;20119;-81
2021/12/14 00:41:58;;;;;;;0.00;0.00;;;6.20;72.10;;;;;;5055720;28;20063;-81
2021/12/14 00:44:23;;;;;;;0.00;0.00;;;6.20;72.20;;;;;;5056947;28;20023;-81
2021/12/14 00:46:52;;;;;;;0.00;0.00;;;6.20;72.20;;;;;;5056899;28;20037;-81
2021/12/14 00:49:18;;;;;;;0.00;0.00;;;6.20;72.30;;;;;;5055611;28;20025;-81
2021/12/14 00:51:45;;;;;;;0.00;0.00;;;6.20;72.30;;;;;;5056595;28;20028;-82
2021/12/14 00:54:14;;;;;;;0.00;0.00;;;6.20;72.70;;;;;;5054878;28;20033;-81
2021/12/14 00:56:41;;;;;;;0.00;0.00;;;6.20;71.90;;;;;;5055883;28;20029;-80
2021/12/14 00:59:09;;;;;;;0.00;0.00;;;6.20;71.90;;;;;;5055983;28;20025;-81
2021/12/14 01:01:44;;;;;;;0.00;0.00;;;6.20;71.90;;;;;;5055550;28;20059;-82
2021/12/14 01:04:26;;;;;;;0.00;0.00;;;6.20;72.10;;;;;;5056210;28;20017;-82
2021/12/14 01:06:52;;;;;;;0.00;0.00;;;6.10;72.20;;;;;;5054839;28;20040;-80
2021/12/14 01:09:23;;;;;;;0.00;0.00;;;6.10;72.50;;;;;;5056044;28;20043;-81
2021/12/14 01:11:50;;;;;;;0.00;0.00;;;6.10;72.50;;;;;;5055175;28;20029;-81
2021/12/14 01:14:33;;;;;;;0.00;0.00;;;6.10;72.40;;;;;;5055011;28;20362;-80
2021/12/14 01:17:11;;;;;;;0.00;0.00;;;6.10;72.30;;;;;;5054854;28;20059;-82
2021/12/14 01:19:48;;;;;;;0.00;0.00;;;6.10;72.50;;;;;;5056042;28;20032;-80
2021/12/14 01:22:43;;;;;;;0.00;0.00;;;6.10;73.20;;;;;;5056212;28;20040;-81
2021/12/14 01:25:29;;;;;;;0.00;0.00;;;6.10;72.70;;;;;;5055548;28;20021;-82
2021/12/14 01:28:03;;;;;;;0.00;0.00;;;6.20;72.60;;;;;;5055107;28;20384;-82
2021/12/14 01:30:33;;;;;;;0.00;0.00;;;6.20;72.20;;;;;;5055233;28;20440;-82
2021/12/14 01:33:04;;;;;;;0.00;0.00;;;6.20;72.20;;;;;;5055391;28;20032;-79
2021/12/14 01:35:33;;;;;;;0.00;0.00;;;6.20;72.30;;;;;;5054897;28;20109;-79
2021/12/14 01:38:17;;;;;;;0.00;0.00;;;6.20;72.50;;;;;;5055580;28;20112;-81
2021/12/14 01:40:53;;;;;;;0.00;0.00;;;6.20;72.50;;;;;;5055535;28;20033;-82
2021/12/14 01:43:27;;;;;;;0.00;0.00;;;6.10;72.40;;;;;;5054511;28;20368;-81
2021/12/14 01:45:55;;;;;;;0.00;0.00;;;6.20;72.40;;;;;;5055226;28;20132;-82
2021/12/14 01:48:23;;;;;;;0.00;0.00;;;6.10;72.30;;;;;;5054901;28;20029;-81
2021/12/14 01:50:53;;;;;;;0.00;0.00;;;6.10;72.30;;;;;;5054958;28;20052;-82
2021/12/14 01:53:21;;;;;;;0.00;0.00;;;6.10;72.40;;;;;;5054253;28;20033;-82
2021/12/14 01:55:53;;;;;;;0.00;0.00;;;6.10;72.30;;;;;;5055628;28;20116;-81
2021/12/14 01:58:23;;;;;;;0.00;0.00;;;6.00;72.20;;;;;;5054111;28;20024;-80
2021/12/14 02:01:00;;;;;;;0.00;0.00;;;6.10;72.30;;;;;;5054406;28;20100;-80
2021/12/14 02:03:40;;;;;;;0.00;0.00;;;6.10;72.40;;;;;;5054736;28;20441;-81
2021/12/14 02:06:07;;;;;;;0.00;0.00;;;6.10;72.30;;;;;;5054165;28;20048;-81
2021/12/14 02:08:35;;;;;;;0.00;0.00;;;6.10;72.30;;;;;;5054548;28;20464;-81
2021/12/14 02:11:05;;;;;;;0.00;0.00;;;6.00;72.40;;;;;;5053737;28;20036;-82
2021/12/14 02:13:37;;;;;;;0.00;0.00;;;6.00;72.50;;;;;;5054766;28;20017;-80
2021/12/14 02:16:06;;;;;;;0.00;0.00;;;6.00;72.70;;;;;;5054269;28;20025;-81
2021/12/14 02:18:32;;;;;;;0.00;0.00;;;6.10;72.80;;;;;;5055110;28;20112;-81
2021/12/14 02:21:03;;;;;;;0.00;0.00;;;6.10;72.80;;;;;;5053900;28;20119;-80
2021/12/14 02:23:30;;;;;;;0.00;0.00;;;6.10;72.50;;;;;;5054771;28;20104;-81
2021/12/14 02:26:00;;;;;;;0.00;0.00;;;6.10;72.30;;;;;;5054187;28;20119;-80
2021/12/14 02:28:26;;;;;;;0.00;0.00;;;6.10;72.40;;;;;;5054670;28;20017;-79
2021/12/14 02:30:56;;;;;;;0.00;0.00;;;6.10;72.40;;;;;;5054284;28;20032;-80
2021/12/14 02:33:29;;;;;;;0.00;0.00;;;6.10;72.30;;;;;;5054103;28;20017;-78
2021/12/14 02:35:55;;;;;;;0.00;0.00;;;6.10;72.20;;;;;;5053142;28;20033;-80
2021/12/14 02:38:21;;;;;;;0.00;0.00;;;6.10;72.10;;;;;;5053264;28;20025;-81
2021/12/14 02:41:07;;;;;;;0.00;0.00;;;6.20;72.10;;;;;;5054180;28;20051;-80
2021/12/14 02:43:47;;;;;;;0.00;0.00;;;6.20;71.90;;;;;;5055055;28;20071;-80
2021/12/14 02:46:13;;;;;;;0.00;0.00;;;6.20;72.00;;;;;;5054736;28;20431;-81
2021/12/14 02:48:45;;;;;;;0.00;0.00;;;6.20;72.10;;;;;;5055139;28;20021;-81
2021/12/14 02:51:35;;;;;;;0.00;0.00;;;6.20;72.00;;;;;;5055566;28;20048;-81
2021/12/14 02:54:08;;;;;;;0.00;0.00;;;6.20;72.10;;;;;;5052777;28;20031;-80
2021/12/14 02:56:36;;;;;;;0.00;0.00;;;6.10;72.10;;;;;;5054385;28;20029;-80
2021/12/14 02:59:07;;;;;;;0.00;0.00;;;6.10;72.30;;;;;;5054098;28;20445;-80
2021/12/14 03:01:34;;;;;;;0.00;0.00;;;6.10;72.20;;;;;;5054432;28;20061;-81
2021/12/14 03:04:02;;;;;;;0.00;0.00;;;6.10;72.00;;;;;;5053400;28;20029;-81
2021/12/14 03:06:31;;;;;;;0.00;0.00;;;6.10;72.00;;;;;;5055054;28;20048;-81
2021/12/14 03:09:09;;;;;;;0.00;0.00;;;6.10;71.90;;;;;;5053380;28;20060;-81
2021/12/14 03:11:37;;;;;;;0.00;0.00;;;6.00;71.80;;;;;;5053118;28;20040;-80
2021/12/14 03:14:03;;;;;;;0.00;0.00;;;6.00;71.70;;;;;;5054753;28;20049;-80
2021/12/14 03:16:32;;;;;;;0.00;0.00;;;5.90;71.80;;;;;;5054654;28;20033;-80
2021/12/14 03:19:00;;;;;;;0.00;0.00;;;5.80;72.00;;;;;;5053314;28;20088;-80
2021/12/14 03:21:30;;;;;;;0.00;0.00;;;5.80;72.30;;;;;;5055314;28;20032;-80
2021/12/14 03:24:13;;;;;;;0.00;0.00;;;5.80;72.40;;;;;;5058551;28;20462;-80
2021/12/14 03:26:45;;;;;;;0.00;0.00;;;5.80;72.60;;;;;;5058139;28;20037;-79
2021/12/14 03:29:18;;;;;;;0.00;0.00;;;5.90;72.50;;;;;;5057672;28;20036;-80
2021/12/14 03:31:47;;;;;;;0.00;0.00;;;5.90;72.40;;;;;;5057788;28;20017;-80
2021/12/14 03:34:17;;;;;;;0.00;0.00;;;5.90;72.40;;;;;;5056977;28;20033;-80
2021/12/14 03:36:50;;;;;;;0.00;0.00;;;5.90;72.30;;;;;;5056396;28;20033;-81
2021/12/14 03:39:25;;;;;;;0.00;0.00;;;6.00;72.20;;;;;;5057638;28;20043;-79
2021/12/14 03:41:58;;;;;;;0.00;0.00;;;6.00;72.20;;;;;;5056590;28;20025;-81
2021/12/14 03:44:29;;;;;;;0.00;0.00;;;6.00;72.20;;;;;;5056683;28;20372;-81
2021/12/14 03:47:00;;;;;;;0.00;0.00;;;6.00;72.40;;;;;;5057791;28;20037;-80
2021/12/14 03:49:34;;;;;;;0.00;0.00;;;6.00;72.50;;;;;;5058521;28;20049;-81
2021/12/14 03:52:01;;;;;;;0.00;0.00;;;6.10;72.70;;;;;;5058605;28;20104;-79
2021/12/14 03:54:27;;;;;;;0.00;0.00;;;6.00;72.30;;;;;;5058432;28;20025;-79
2021/12/14 03:56:54;;;;;;;0.00;0.00;;;6.10;72.10;;;;;;5059212;28;20039;-79
2021/12/14 03:59:21;;;;;;;0.00;0.00;;;6.10;72.20;;;;;;5058836;28;20025;-81
2021/12/14 04:01:49;;;;;;;0.00;0.00;;;6.20;72.40;;;;;;5058266;28;20072;-79
2021/12/14 04:04:28;;;;;;;0.00;0.00;;;6.20;71.80;;;;;;5058328;28;20032;-81
2021/12/14 04:06:57;;;;;;;0.00;0.00;;;6.20;71.80;;;;;;5057081;28;20073;-80
2021/12/14 04:09:27;;;;;;;0.00;0.00;;;6.30;72.00;;;;;;5057871;28;20024;-80
2021/12/14 04:11:53;;;;;;;0.00;0.00;;;6.30;71.80;;;;;;5057340;28;20035;-80
2021/12/14 04:14:20;;;;;;;0.00;0.00;;;6.30;71.40;;;;;;5057579;28;20090;-81
2021/12/14 04:16:49;;;;;;;0.00;0.00;;;6.30;71.30;;;;;;5056407;28;20036;-79
2021/12/14 04:19:21;;;;;;;0.00;0.00;;;6.30;71.30;;;;;;5057027;28;20542;-80
2021/12/14 04:21:48;;;;;;;0.00;0.00;;;6.30;71.40;;;;;;5056807;28;20025;-80
2021/12/14 04:24:22;;;;;;;0.00;0.00;;;6.30;71.50;;;;;;5057152;28;20099;-81
2021/12/14 04:26:49;;;;;;;0.00;0.00;;;6.30;71.50;;;;;;5055702;28;20473;-80
2021/12/14 04:29:15;;;;;;;0.00;0.00;;;6.30;71.30;;;;;;5054955;28;20082;-80
2021/12/14 04:31:43;;;;;;;0.00;0.00;;;6.30;71.20;;;;;;5056416;28;20021;-81
2021/12/14 04:34:09;;;;;;;0.00;0.00;;;6.40;71.20;;;;;;5055222;28;20507;-80
2021/12/14 04:36:36;;;;;;;0.00;0.00;;;6.40;71.40;;;;;;5057379;28;20076;-81
2021/12/14 04:53:32;;;;;;;0.00;0.00;;;6.40;71.20;;;;;;5056270;28;20032;-80
2021/12/14 04:55:58;;;;;;;0.00;0.00;;;6.40;71.20;;;;;;5055845;28;20036;-80
2021/12/14 04:58:37;;;;;;;0.00;0.00;;;6.40;71.30;;;;;;5055886;28;20021;-81
2021/12/14 05:01:06;;;;;;;0.00;0.00;;;6.30;71.30;;;;;;5055416;28;20029;-81
2021/12/14 05:03:45;;;;;;;0.00;0.00;;;6.40;71.50;;;;;;5055881;28;20428;-80
2021/12/14 05:06:17;;;;;;;0.00;0.00;;;6.30;71.50;;;;;;5056847;28;20365;-80
2021/12/14 05:11:23;;;;;;;0.00;0.00;;;6.30;71.60;;;;;;5056105;28;20115;-80
2021/12/14 05:13:57;;;;;;;0.00;0.00;;;6.30;71.50;;;;;;5055831;28;20104;-81
2021/12/14 05:16:25;;;;;;;0.00;0.00;;;6.30;71.50;;;;;;5055784;28;20025;-80
2021/12/14 05:18:55;;;;;;;0.00;0.00;;;6.30;71.60;;;;;;5055931;28;20047;-81
2021/12/14 05:21:25;;;;;;;0.00;0.00;;;6.30;71.60;;;;;;5055122;28;20032;-80
2021/12/14 05:23:51;;;;;;;0.00;0.00;;;6.30;71.40;;;;;;5054534;28;20075;-81
2021/12/14 05:26:18;;;;;;;0.00;0.00;;;6.30;71.30;;;;;;5056392;28;20037;-81
2021/12/14 05:28:44;;;;;;;0.00;0.00;;;6.30;71.50;;;;;;5056334;28;20038;-81
2021/12/14 05:31:10;;;;;;;0.00;0.00;;;6.30;71.50;;;;;;5054712;28;20052;-80
2021/12/14 05:33:37;;;;;;;0.00;0.00;;;6.30;71.50;;;;;;5056058;28;20453;-81
2021/12/14 05:36:08;;;;;;;0.00;0.00;;;6.30;71.50;;;;;;5055396;28;20085;-80
2021/12/14 05:44:23;;;;;;;0.00;0.00;;;6.40;71.30;;;;;;5055027;28;20025;-80
2021/12/14 05:46:52;;;;;;;0.00;0.00;;;6.40;71.10;;;;;;5053735;28;20040;-82
2021/12/14 05:49:22;;;;;;;0.00;0.00;;;6.40;71.10;;;;;;5055025;28;20222;-80
2021/12/14 05:51:50;;;;;;;0.00;0.00;;;6.40;71.30;;;;;;5053116;28;20044;-81
2021/12/14 05:54:29;;;;;;;0.00;0.00;;;6.40;71.30;;;;;;5054418;28;20074;-81
2021/12/14 05:56:58;;;;;;;0.00;0.00;;;6.40;72.00;;;;;;5053687;28;20123;-81
2021/12/14 05:59:27;;;;;;;0.00;0.00;;;6.40;71.50;;;;;;5054538;28;20445;-81
2021/12/14 06:01:54;;;;;;;0.00;0.00;;;6.40;71.30;;;;;;5053588;28;20529;-80
2021/12/14 06:04:20;;;;;;;0.00;0.00;;;6.50;71.20;;;;;;5053247;28;20020;-81
2021/12/14 06:07:00;;;;;;;0.00;0.00;;;6.50;71.20;;;;;;5054650;28;20090;-79
2021/12/14 06:09:33;;;;;;;0.00;0.00;;;6.50;71.30;;;;;;5053711;28;20039;-80
2021/12/14 06:12:20;;;;;;;0.00;0.00;;;6.50;71.10;;;;;;5053697;28;20100;-81
2021/12/14 06:14:52;;;;;;;0.00;0.00;;;6.50;70.80;;;;;;5052687;28;20067;-80
2021/12/14 06:17:36;;;;;;;0.00;0.00;;;6.60;70.70;;;;;;5054130;28;20075;-80
2021/12/14 06:20:15;;;;;;;0.00;0.00;;;6.50;70.70;;;;;;5054195;28;20040;-82
2021/12/14 06:22:44;;;;;;;0.00;0.00;;;6.50;70.90;;;;;;5053484;28;20028;-81
2021/12/14 06:25:17;;;;;;;0.00;0.00;;;6.40;70.90;;;;;;5052416;28;20017;-81
2021/12/14 06:27:46;;;;;;;0.00;0.00;;;6.40;70.80;;;;;;5054322;28;20029;-81
2021/12/14 06:30:16;;;;;;;0.00;0.00;;;6.50;70.80;;;;;;5054279;28;20021;-80
2021/12/14 06:33:07;;;;;;;0.00;0.00;;;6.50;70.80;;;;;;5053681;28;20377;-81
2021/12/14 06:35:37;;;;;;;0.00;0.00;;;6.40;70.70;;;;;;5053322;28;20072;-80
2021/12/14 06:40:53;;;;;;;0.00;0.00;;;6.50;71.10;;;;;;5054001;28;20025;-80
2021/12/14 06:43:45;;;;;;;0.00;0.00;;;6.40;71.00;;;;;;5053576;28;20076;-80
2021/12/14 06:46:21;;;;;;;0.00;0.00;;;6.40;71.00;;;;;;5051053;28;20041;-80
2021/12/14 06:48:54;;;;;;;0.00;0.00;;;6.40;71.10;;;;;;5053906;28;20029;-82
2021/12/14 06:51:31;;;;;;;0.00;0.00;;;6.50;71.20;;;;;;5053452;28;20021;-79
2021/12/14 06:54:02;;;;;;;0.00;0.00;;;6.40;71.10;;;;;;5053396;28;20021;-81
2021/12/14 06:56:30;;;;;;;0.00;0.00;;;6.50;71.20;;;;;;5054276;28;20095;-80
2021/12/14 06:58:57;;;;;;;0.00;0.00;;;6.50;71.00;;;;;;5056610;28;20025;-81
2021/12/14 07:01:31;;;;;;;0.00;0.00;;;6.50;71.10;;;;;;5057855;28;20060;-82
2021/12/14 07:03:59;;;;;;;0.00;0.00;;;6.50;71.10;;;;;;5056482;28;20106;-81
2021/12/14 07:06:28;;;;;;;0.00;0.00;;;6.50;71.10;;;;;;5058366;28;20091;-81
2021/12/14 07:08:58;;;;;;;0.00;0.00;;;6.60;71.10;;;;;;5057350;28;20025;-81
2021/12/14 07:11:25;;;;;;;0.00;0.00;;;6.60;71.00;;;;;;5057415;28;20040;-82
2021/12/14 07:13:52;;;;;;;0.00;0.00;;;6.60;70.90;;;;;;5057566;28;20117;-82
2021/12/14 07:16:39;;;;;;;0.00;0.00;;;6.50;70.60;;;;;;5055944;28;20044;-81
2021/12/14 07:19:06;;;;;;;0.00;0.00;;;6.50;70.80;;;;;;5056901;28;20032;-82
2021/12/14 07:21:41;;;;;;;0.00;0.00;;;6.50;70.80;;;;;;5057135;28;20365;-82
2021/12/14 07:24:29;;;;;;;0.00;0.00;;;6.60;70.90;;;;;;5057016;28;20024;-81
2021/12/14 07:27:16;;;;;;;0.00;0.00;;;6.60;70.80;;;;;;5057658;28;20048;-81
2021/12/14 07:29:42;;;;;;;0.00;0.00;;;6.60;70.60;;;;;;5056887;28;20024;-81
2021/12/14 07:32:08;;;;;;;0.00;0.00;;;6.60;70.60;;;;;;5057389;28;20495;-82
2021/12/14 07:34:34;;;;;;;0.00;0.00;;;6.60;70.50;;;;;;5056873;28;20502;-81
2021/12/14 07:37:00;;;;;;;0.00;0.00;;;6.60;70.40;;;;;;5056962;28;20108;-82
2021/12/14 07:39:26;;;;;;;0.00;0.00;;;6.60;70.50;;;;;;5055938;28;20025;-83
2021/12/14 07:41:55;;;;;;;0.00;0.00;;;6.60;70.60;;;;;;5057527;28;20027;-82
2021/12/14 07:44:33;;;;;;;0.00;0.00;;;6.60;70.60;;;;;;5058200;28;20021;-81
2021/12/14 07:47:07;;;;;;;0.00;0.00;;;6.60;70.70;;;;;;5057507;28;20455;-81
2021/12/14 07:49:33;;;;;;;0.00;0.00;;;6.60;70.60;;;;;;5057194;28;20036;-82
2021/12/14 07:52:10;;;;;;;0.00;0.00;;;6.60;70.70;;;;;;5057157;28;20059;-82
2021/12/14 07:54:48;;;;;;;0.00;0.00;;;6.70;70.80;;;;;;5040288;28;20462;-81
2021/12/14 07:57:31;;;;;;;0.00;0.00;;;6.70;70.80;;;;;;5057102;28;20029;-82
2021/12/14 08:00:08;;;;;;;0.00;0.00;;;6.60;70.80;;;;;;5056842;28;20071;-82
2021/12/14 08:02:43;;;;;;;0.00;0.00;;;6.70;70.90;;;;;;5055342;28;20029;-82
2021/12/14 08:05:17;;;;;;;0.00;0.00;;;6.70;70.70;;;;;;5056740;28;20041;-81
2021/12/14 08:08:16;;;;;;;0.00;0.00;;;6.70;70.60;;;;;;5056652;28;20057;-82
2021/12/14 08:10:58;;;;;;;0.00;0.00;;;6.70;70.60;;;;;;5055717;28;20033;-83
2021/12/14 08:13:26;;;;;;;0.00;0.00;;;6.70;70.80;;;;;;5059869;28;20021;-81
2021/12/14 08:16:00;;;;;;;0.00;0.00;;;6.70;70.70;;;;;;5057982;28;20108;-82
2021/12/14 08:18:38;;;;;;;0.00;0.00;;;6.70;70.80;;;;;;5060081;28;20021;-82
2021/12/14 08:21:20;;;;;;;0.00;0.00;;;6.80;71.00;;;;;;5061165;28;20051;-82
2021/12/14 08:23:52;;;;;;;0.00;0.00;;;6.70;71.10;;;;;;5059425;28;20029;-80
2021/12/14 08:26:28;;;;;;;0.00;0.00;;;6.80;70.70;;;;;;5058364;28;20395;-81
2021/12/14 08:28:59;;;;;;;0.00;0.00;;;6.80;70.90;;;;;;5058236;28;20029;-81
2021/12/14 08:31:33;;;;;;;0.00;0.00;;;6.80;70.60;;;;;;5057896;28;20032;-82
2021/12/14 08:34:04;;;;;;;0.00;0.00;;;6.90;70.20;;;;;;5057400;28;20072;-81
2021/12/14 08:36:42;;;;;;;0.00;0.00;;;6.90;70.20;;;;;;5057449;28;20078;-82
2021/12/14 08:39:21;;;;;;;0.00;0.00;;;6.90;70.30;;;;;;5057400;28;20071;-81
2021/12/14 08:41:56;;;;;;;0.00;0.00;;;6.90;69.90;;;;;;5057854;28;20029;-80
2021/12/14 08:44:37;;;;;;;0.00;0.00;;;7.00;69.70;;;;;;5058477;28;20131;-81
2021/12/14 08:47:11;;;;;;;0.00;0.00;;;7.00;69.80;;;;;;5058298;28;20033;-82
2021/12/14 08:49:39;;;;;;;0.00;0.00;;;7.00;69.70;;;;;;5056853;28;20045;-80
2021/12/14 08:52:06;;;;;;;0.00;0.00;;;7.00;69.60;;;;;;5058073;28;20033;-83
2021/12/14 08:54:34;;;;;;;0.00;0.00;;;7.00;69.50;;;;;;5057645;28;20092;-83
2021/12/14 08:57:10;;;;;;;0.00;0.00;;;6.90;69.60;;;;;;5057589;28;20021;-82
2021/12/14 08:59:39;;;;;;;0.00;0.00;;;6.90;69.60;;;;;;5057650;28;20083;-82
2021/12/14 09:02:08;;;;;;;0.00;0.00;;;6.90;70.30;;;;;;5056232;28;20056;-81
2021/12/14 09:04:39;;;;;;;0.00;0.00;;;6.90;69.70;;;;;;5056018;28;20108;-82
2021/12/14 09:07:13;;;;;;;0.00;0.00;;;6.90;69.90;;;;;;5056585;28;20094;-82
2021/12/14 09:09:40;;;;;;;0.00;0.00;;;7.00;70.00;;;;;;5039700;28;20029;-83
2021/12/14 09:12:27;;;;;;;0.00;0.00;;;6.90;69.70;;;;;;5056780;28;20108;-82
2021/12/14 09:14:57;;;;;;;0.00;0.00;;;6.90;69.70;;;;;;5055787;28;20104;-82
2021/12/14 09:17:24;;;;;;;0.00;0.00;;;6.90;69.70;;;;;;5054441;28;20036;-83
2021/12/14 09:20:00;;;;;;;0.00;0.00;;;6.90;69.80;;;;;;5054438;28;20079;-82
2021/12/14 09:22:31;;;;;;;0.00;0.00;;;6.90;69.90;;;;;;5055707;28;20025;-82
2021/12/14 09:24:58;;;;;;;0.00;0.00;;;6.90;70.00;;;;;;5054916;28;20083;-81
2021/12/14 09:27:28;;;;;;;0.00;0.00;;;6.90;69.80;;;;;;5054302;28;20033;-83
2021/12/14 09:29:55;;;;;;;0.00;0.00;;;7.00;69.50;;;;;;5055289;28;20048;-82
2021/12/14 09:32:26;;;;;;;0.00;0.00;;;7.00;69.30;;;;;;5054457;28;20021;-82
2021/12/14 09:34:54;;;;;;;0.00;0.00;;;7.00;69.10;;;;;;5054446;28;20469;-82
2021/12/14 09:37:20;;;;;;;0.00;0.00;;;7.00;69.10;;;;;;5053806;28;20041;-82
2021/12/14 09:39:56;;;;;;;0.00;0.00;;;7.10;69.30;;;;;;5054863;28;20025;-81
2021/12/14 09:42:29;;;;;;;0.00;0.00;;;7.10;69.30;;;;;;5054465;28;20021;-82
2021/12/14 09:44:59;;;;;;;0.00;0.00;;;7.10;69.40;;;;;;5037122;28;20021;-81
2021/12/14 09:47:29;;;;;;;0.00;0.00;;;7.10;69.30;;;;;;5054632;28;20092;-83
2021/12/14 09:49:58;;;;;;;0.00;0.00;;;7.10;69.20;;;;;;5052866;28;20029;-80
2021/12/14 09:52:29;;;;;;;0.00;0.00;;;7.10;69.10;;;;;;5053122;28;20021;-81
2021/12/14 09:54:57;;;;;;;0.00;0.00;;;7.20;69.10;;;;;;5054974;28;20086;-82
2021/12/14 09:57:35;;;;;;;0.00;0.00;;;7.20;69.20;;;;;;5054372;28;20515;-82
2021/12/14 10:00:16;;;;;;;0.00;0.00;;;7.10;69.20;;;;;;5053833;28;20025;-81
2021/12/14 10:02:43;;;;;;;0.00;0.00;;;7.10;69.20;;;;;;5054918;28;20102;-81
2021/12/14 10:05:21;;;;;;;0.00;0.00;;;7.10;69.40;;;;;;5054344;28;20151;-82
2021/12/14 10:07:48;;;;;;;0.00;0.00;;;7.10;69.40;;;;;;5054422;28;20064;-82
2021/12/14 10:10:17;;;;;;;0.00;0.00;;;7.10;69.40;;;;;;5054684;28;20025;-81
2021/12/14 10:12:49;;;;;;;0.00;0.00;;;7.10;69.40;;;;;;5053731;28;20112;-82
2021/12/14 10:15:55;;;;;;;0.00;0.00;;;7.10;69.40;;;;;;5054381;28;20075;-81
2021/12/14 10:18:27;;;;;;;0.00;0.00;;;7.10;69.50;;;;;;5053324;28;20502;-82
2021/12/14 10:20:58;;;;;;;0.00;0.00;;;7.00;69.60;;;;;;5054039;28;20032;-81
2021/12/14 10:23:25;;;;;;;0.00;0.00;;;7.10;69.70;;;;;;5053131;28;20155;-81
2021/12/14 10:25:52;;;;;;;0.00;0.00;;;7.00;69.70;;;;;;5052582;28;20025;-81
2021/12/14 10:28:19;;;;;;;0.00;0.00;;;7.00;69.80;;;;;;5053698;28;20037;-81
2021/12/14 10:30:56;;;;;;;0.00;0.00;;;7.10;70.00;;;;;;5053713;28;20021;-81
2021/12/14 10:33:26;;;;;;;0.00;0.00;;;7.10;70.10;;;;;;5053591;28;20031;-81
2021/12/14 10:36:00;;;;;;;0.00;0.00;;;7.10;70.10;;;;;;5054251;28;20021;-82
2021/12/14 10:38:32;;;;;;;0.00;0.00;;;7.10;69.80;;;;;;5054516;28;20431;-84
2021/12/14 10:44:04;;;;;;;;;;;7.20;69.30;;;;;;5054305;28;20051;-82
2021/12/14 10:46:37;;;;;;;0.00;0.00;;;7.20;69.40;;;;;;5052451;28;20007;-83
2021/12/14 10:49:04;;;;;;;0.00;0.00;;;7.20;69.30;;;;;;5053878;28;20033;-81
2021/12/14 10:51:35;;;;;;;0.00;0.00;;;7.20;69.30;;;;;;5052762;28;20025;-84
2021/12/14 10:54:03;;;;;;;0.00;0.00;;;7.20;69.20;;;;;;5054299;28;20112;-82
2021/12/14 10:56:34;;;;;;;0.00;0.00;;;7.20;69.20;;;;;;5054129;28;20459;-78
2021/12/14 10:59:05;;;;;;;0.00;0.00;;;7.20;69.20;;;;;;5053648;28;20381;-81
2021/12/14 11:01:33;;;;;;;0.00;0.00;;;7.20;69.10;;;;;;5052348;28;20431;-81
2021/12/14 11:04:13;;;;;;;0.00;0.00;;;7.20;68.90;;;;;;5053752;28;20437;-81
2021/12/14 11:06:43;;;;;;;0.00;0.00;;;7.20;69.10;;;;;;5053953;28;20053;-80
2021/12/14 11:11:59;;;;;;;0.00;0.00;;;7.10;69.00;;;;;;5053579;28;20037;-80
2021/12/14 11:14:30;;;;;;;0.00;0.00;;;7.10;68.80;;;;;;5053477;28;20358;-81
2021/12/14 11:19:58;;;;;;;0.40;0.00;;;7.00;68.50;;;;;;5053374;28;20054;-80
2021/12/14 11:22:41;;;;;;;0.00;0.00;;;7.00;68.70;;;;;;5052509;28;20521;-80
2021/12/14 11:25:14;;;;;;;0.00;0.00;;;6.90;69.00;;;;;;5053464;28;20021;-81
2021/12/14 11:28:14;;;;;;;0.00;0.00;;;6.90;69.10;;;;;;5053750;28;20032;-81
2021/12/14 11:30:52;;;;;;;0.00;0.00;;;6.90;69.20;;;;;;5053858;28;20052;-82
2021/12/14 11:33:39;;;;;;;0.00;0.00;;;6.90;69.30;;;;;;5053610;28;20033;-82
2021/12/14 11:36:31;;;;;;;0.00;0.00;;;6.90;69.00;;;;;;5052694;28;20033;-82
2021/12/14 11:39:23;;;;;;;0.00;0.00;;;6.80;69.10;;;;;;5052783;28;20036;-81
2021/12/14 11:41:52;;;;;;;0.00;0.00;;;6.80;69.30;;;;;;5054085;28;20043;-82
2021/12/14 11:44:33;;;;;;;0.00;0.00;;;6.80;69.40;;;;;;5055330;28;20021;-80
2021/12/14 11:47:23;;;;;;;0.00;0.00;;;6.80;69.60;;;;;;5056932;28;20362;-81
2021/12/14 11:49:57;;;;;;;0.00;0.00;;;6.80;69.70;;;;;;5057174;28;20024;-80
2021/12/14 11:52:37;;;;;;;0.00;0.00;;;6.80;69.70;;;;;;5056572;28;20048;-81
2021/12/14 11:55:32;;;;;;;0.00;0.00;;;6.80;69.60;;;;;;5056435;28;20103;-81
2021/12/14 11:58:07;;;;;;;0.00;0.00;;;6.70;69.70;;;;;;5055439;28;20116;-80
2021/12/14 12:00:36;;;;;;;0.00;0.00;;;6.70;69.70;;;;;;5038390;28;20079;-81
2021/12/14 12:03:19;;;;;;;0.00;0.00;;;6.70;69.60;;;;;;5056971;28;20031;-81
2021/12/14 12:06:05;;;;;;;0.00;0.00;;;6.70;69.50;;;;;;5056388;28;20094;-80
2021/12/14 12:11:19;;;;;;;0.00;0.00;;;6.80;69.80;;;;;;5057268;28;20352;-82
2021/12/14 12:13:45;;;;;;;0.00;0.00;;;6.80;69.60;;;;;;5056209;28;20366;-81
2021/12/14 12:16:17;;;;;;;0.00;0.00;;;6.80;69.50;;;;;;5057194;28;20029;-81
2021/12/14 12:19:20;;;;;;;0.00;0.00;;;6.70;69.30;;;;;;5055991;28;20029;-82
2021/12/14 12:21:48;;;;;;;0.00;0.00;;;6.70;69.60;;;;;;5055898;28;20036;-81
2021/12/14 12:24:33;;;;;;;0.00;0.00;;;6.70;69.80;;;;;;5057320;28;20056;-78
2021/12/14 12:27:19;;;;;;;0.00;0.00;;;6.70;69.90;;;;;;5056071;28;20029;-79
2021/12/14 12:29:47;;;;;;;0.00;0.00;;;6.70;70.00;;;;;;5056465;28;20465;-80
2021/12/14 12:32:23;;;;;;;0.00;0.00;;;6.60;70.00;;;;;;5058843;28;20040;-80
2021/12/14 12:34:50;;;;;;;0.00;0.00;;;6.60;70.10;;;;;;5056224;28;20033;-80
2021/12/14 12:37:41;;;;;;;0.00;0.00;;;6.60;70.40;;;;;;5054596;28;20029;-80
2021/12/14 12:40:15;;;;;;;0.00;0.00;;;6.60;70.50;;;;;;5056425;28;20052;-80
2021/12/14 12:42:43;;;;;;;0.00;0.00;;;6.60;70.50;;;;;;5056355;28;20033;-80
2021/12/14 12:45:33;;;;;;;0.00;0.00;;;6.60;70.40;;;;;;5054922;28;20082;-80
2021/12/14 12:48:07;;;;;;;0.00;0.00;;;6.60;70.30;;;;;;5057358;28;20075;-79
2021/12/14 12:50:39;;;;;;;0.00;0.00;;;6.50;70.40;;;;;;5057404;28;20036;-79
2021/12/14 12:53:05;;;;;;;0.00;0.00;;;6.50;70.70;;;;;;5057989;28;20389;-79
2021/12/14 12:55:35;;;;;;;0.00;0.00;;;6.50;70.60;;;;;;5056728;28;20108;-79
2021/12/14 12:58:14;;;;;;;0.00;0.00;;;6.60;71.00;;;;;;5059957;28;20032;-79
2021/12/14 13:00:52;;;;;;;0.00;0.00;;;6.60;71.00;;;;;;5059741;28;20056;-81
2021/12/14 13:03:24;;;;;;;0.00;0.00;;;6.60;70.70;;;;;;5056193;28;20036;-81
2021/12/14 13:06:02;;;;;;;0.00;0.00;;;6.60;70.50;;;;;;5054440;28;20480;-81
2021/12/14 13:08:44;;;;;;;0.00;0.00;;;6.60;70.70;;;;;;5054980;28;20090;-81
2021/12/14 13:11:31;;;;;;;0.00;0.00;;;6.50;70.80;;;;;;5055386;28;20107;-80
2021/12/14 13:14:01;;;;;;;0.00;0.00;;;6.50;70.60;;;;;;5054349;28;20362;-80
2021/12/14 13:16:34;;;;;;;0.00;0.00;;;6.50;70.60;;;;;;5053318;28;20068;-79
2021/12/14 13:19:11;;;;;;;0.00;0.00;;;6.50;70.70;;;;;;5054350;28;20025;-80
2021/12/14 13:21:53;;;;;;;0.00;0.00;;;6.50;70.70;;;;;;5054495;28;20024;-80
2021/12/14 13:24:29;;;;;;;0.00;0.00;;;6.40;70.80;;;;;;5053241;28;20055;-80
2021/12/14 13:27:14;;;;;;;0.00;0.00;;;6.40;70.80;;;;;;5055066;28;20054;-81
2021/12/14 13:29:56;;;;;;;0.00;0.00;;;6.40;71.00;;;;;;5054570;28;20037;-78
2021/12/14 13:32:29;;;;;;;0.00;0.00;;;6.40;71.20;;;;;;5054404;28;20025;-80
2021/12/14 13:35:00;;;;;;;0.00;0.00;;;6.40;71.40;;;;;;5054643;28;20070;-80
2021/12/14 13:37:29;;;;;;;0.00;0.00;;;6.40;71.50;;;;;;5054156;28;20086;-80
2021/12/14 13:39:56;;;;;;;0.00;0.00;;;6.30;71.30;;;;;;5054643;28;20029;-80
2021/12/14 13:42:42;;;;;;;0.00;0.00;;;6.30;71.60;;;;;;5054904;28;20019;-81
2021/12/14 13:45:44;;;;;;;0.00;0.00;;;6.30;71.60;;;;;;5055210;28;20029;-80
2021/12/14 13:48:29;;;;;;;0.20;0.00;;;6.30;71.60;;;;;;5053269;28;20128;-80
2021/12/14 13:51:03;;;;;;;0.00;0.00;;;6.20;71.60;;;;;;5054037;28;20021;-80
2021/12/14 13:53:32;;;;;;;0.00;0.00;;;6.20;71.70;;;;;;5054067;28;20104;-79
2021/12/14 13:56:09;;;;;;;0.00;0.00;;;6.10;72.00;;;;;;5054396;28;20265;-81
2021/12/14 13:58:38;;;;;;;0.00;0.00;;;6.10;72.50;;;;;;5054657;28;20028;-80
2021/12/14 14:01:23;;;;;;;0.00;0.00;;;6.10;72.40;;;;;;5054055;28;20021;-81
2021/12/14 14:03:55;;;;;;;0.10;0.00;;;6.10;72.50;;;;;;5053949;28;20025;-80
2021/12/14 14:06:23;;;;;;;0.00;0.00;;;6.20;72.40;;;;;;5052109;28;20041;-80
2021/12/14 14:08:56;;;;;;;0.00;0.00;;;6.20;72.40;;;;;;5054787;28;20037;-79
2021/12/14 14:11:44;;;;;;;0.00;0.00;;;6.20;72.50;;;;;;5054411;28;20021;-79